Aérodrome :
LOGIN :

S'inscrire | Disclaimer

   EN    FR    IT 

 










Légende :    VFR   VFR Marginal   IFR   IFR Intensif   IFR Très Intensif
Visi : 
Plafond : 
>= 8 km
>= 3000ft
5 à 8 km
1000 à 3000 ft
1500m à 5 km
500 à 1000 ft
800 à 1500m
200 à 500 ft
< 800m
< 200 ft
Symboles :   Orages  Brouillard  Fortes neiges  Fortes précipitations  Vent > 20 kt
SIGMETs :   Divers  Orages  Givrage  Turbulence  Onde Orograph.  Cendres Volcan.







- Altitude de l'aérodrome : 357 ft
- Code IATA : TUF
- Voir les cartes d'approche


LFOT - Tours

DERNIER METAR :
  • 151200Z AUTO 07008KT 7000 BKN005 12/11 Q1021 BECMG NSC

METARs EXPIRÉS :
  • 151130Z AUTO 09007KT 070V130 8000 OVC003 12/12 Q1021 BECMG NSC
  • 151100Z AUTO 08007KT 5000 BR BKN003 12/12 Q1021 BECMG NSC
  • 151030Z AUTO 08007KT 5000 BR OVC003 11/11 Q1021 BECMG NSC
  • 151000Z AUTO 09008KT 3800 BR VV/// 10/10 Q1021 BECMG 6000 NSW SCT003
  • 150930Z AUTO 09008KT 0800 0650 R20/1700D FG VV/// 10/10 Q1021 BECMG 6000 NSW SCT003

TAF TAF LFOT
Valide du 15 à 12h jusqu'au 16 à 12h UTC


151100Z 1512/1612 10006KT CAVOK
TEMPO 1512/1513 5000 BR BKN003
BECMG 1518/1520 3000 BR NSC
BECMG 1520/1522 0600 FG OVC002
TEMPO 1522/1610 0200 FG VV///
BECMG 1611/1612 3000 BR BKN003
Pas de NOTAMs connus pour ce terrain.



MET'MAP, la Météo Aéronautique d'un coup d'oeil ! - Copyright ORBIFLY Décembre 2007 - Disclaimer

ORBIFLY MET'MAP TEAM :

Programmation & Développement : Alexandra Zaïnal
Conception & Développement : Baudouin d'Aumeries
Co-Programmation & Développement : Marc-Olivier Méhu
Soutien technique & logistique : Manuel Goepfert

Contact : metmap@orbifly.com




SOURCES & CREDITS :

   NOAA